Broomfield, CO (80023)

3:39 PM MST on January 28, 2015 (GMT -0700)
Northmoor Subdivision - Central Broomfield | Change Station
CLOSE
Current Station
Personal Weather Station
Location: Broomfield, CO
Elevation: 5384 ft
Nearby Weather Stations

Elev 5384 ft 39.94 °N, 105.05 °W | Updated 3 seconds ago

Clear
Clear
62.4 °F
Feels Like 62.4 °F
N
1.6
Wind Variable Wind from NNE
Gusts 5.4 mph

Today
High -- | Low -- °F
--% Chance of Precip.
Yesterday
High -- | Low -- °F
Precip. -- in
7:12 AM 5:14 PM
Waxing Gibbous, 68% visible
Pressure 30.07 in
Visibility 60.0 miles
Clouds Few 6000 ft
Dew Point 20 °F
Humidity 19%
Rainfall 0.00 in
Snow Depth Not available.
UV 2 out of 12
Pollen 2.20 out of 12
Air Quality Not available.
Flu Activity Not available.
METAR KBJC 282149Z VRB04KT 60SM FEW060 SCT12 15/M08 A3007 RMK PRESFR

More Conditions Fewer Conditions

Pressure 30.07 in
Visibility 60.0 miles
Clouds Few 6000 ft
Dew Point 20 °F
Humidity 19%
Rainfall 0.00 in
Snow Depth Not available.
UV 2 out of 12
Pollen 2.20 out of 12
Air Quality Not available.
Flu Activity Not available.
METAR KBJC 282149Z VRB04KT 60SM FEW060 SCT12 15/M08 A3007 RMK PRESFR

More Conditions Fewer Conditions

Nowcast | as of 1:53 PM MST on January 28, 2015

West to northwest winds at 20 to 30 mph will continue over the Front Range foothills through the afternoon. Gusts up to 40 mph will occur in wind prone areas along the foothills.

×

10-Day Weather Forecast

Almanac

Astronomy

Jan. 28, 2015 Rise Set
Actual Time
Civil Twilight
Nautical Twilight
Astronomical Twilight
Moon
Length of Visible Light
Length of Day
Tomorrow will be .
, % of the Moon is Illuminated

Today's Extremes

State Highs State Lows

Community

WunderPhotos

Upload Photos

1,791,286 photos uploaded!

WunderBlogs® & News

Nearby

Air Quality

  Air Quality AQ Index Pollutant
Not available.

Snow Depth

Station Depth Elevation

Earthquake Activity

City Distance Mag. Time & Date
Minimum magnitude displayed is 2.5.

Coastal Water Temperatures

Place Temperature

Nearby Weather Stations